SCRIPT_RESULTS Banner
TAF for LQBK

by Dr. Günther Eichhorn

TAF for LQBK provided by aerobaticsweb.org
Current time: Saturday, 28 May, 2022, 21:04 UTC
(This may take a minute, please be patient)


The most recent TAF forecast from LQBK in our system was generated at
2022/05/28 18:08
The forecast is:
LQBK 2022/05/28 18:08
TAF LQBK 281700Z 2818/2918 04007KT 9999 SCT040 TX17/2913Z TN13/2903Z
TEMPO 2818/2824 5000 SHRA FEW033TCU BKN040
TEMPO 2900/2910 5000 RA



access provided by Dr. Guenther Eichhorn at aerobaticsweb.org